<?xml version="1.0" encoding="UTF-8" standalone="no" ?>
<gpx xmlns="http://www.topografix.com/GPX/1/1" xmlns:xsi="http://www.w3.org/2001/XMLSchema-instance" xsi:schemaLocation="http://www.topografix.com/GPX/1/1 http://www.topografix.com/GPX/1/1/gpx.xsd" version="1.1" creator="VisuGPX - https://www.visugpx.com">
  <metadata>
    <name>troglodyte 60 km raccourci</name>
  </metadata>
  <trk>
    <name><![CDATA[Trace 1]]></name>
    <trkseg>
      <trkpt lat="49.32159" lon="0.98933">
        <ele>48</ele>
        <time>2019-06-10T18:14:04Z</time>
      </trkpt>
      <trkpt lat="49.32159" lon="0.98933">
        <ele>48</ele>
        <time>2019-06-10T18:14:04Z</time>
      </trkpt>
      <trkpt lat="49.32168" lon="0.98925">
        <ele>51</ele>
        <time>2019-06-10T18:14:06Z</time>
      </trkpt>
      <trkpt lat="49.3218" lon="0.98886">
        <ele>52</ele>
        <time>2019-06-10T18:14:13Z</time>
      </trkpt>
      <trkpt lat="49.32193" lon="0.98857">
        <ele>54</ele>
        <time>2019-06-10T18:14:18Z</time>
      </trkpt>
      <trkpt lat="49.32194" lon="0.98818">
        <ele>50</ele>
        <time>2019-06-10T18:14:24Z</time>
      </trkpt>
      <trkpt lat="49.322" lon="0.98807">
        <ele>50</ele>
        <time>2019-06-10T18:14:26Z</time>
      </trkpt>
      <trkpt lat="49.32212" lon="0.98799">
        <ele>53</ele>
        <time>2019-06-10T18:14:29Z</time>
      </trkpt>
      <trkpt lat="49.32219" lon="0.98783">
        <ele>53</ele>
        <time>2019-06-10T18:14:32Z</time>
      </trkpt>
      <trkpt lat="49.32227" lon="0.9878">
        <ele>54</ele>
        <time>2019-06-10T18:14:34Z</time>
      </trkpt>
      <trkpt lat="49.32234" lon="0.98788">
        <ele>57</ele>
        <time>2019-06-10T18:14:36Z</time>
      </trkpt>
      <trkpt lat="49.32251" lon="0.98795">
        <ele>62</ele>
        <time>2019-06-10T18:14:40Z</time>
      </trkpt>
      <trkpt lat="49.32274" lon="0.988">
        <ele>67</ele>
        <time>2019-06-10T18:14:46Z</time>
      </trkpt>
      <trkpt lat="49.32287" lon="0.98808">
        <ele>70</ele>
        <time>2019-06-10T18:14:49Z</time>
      </trkpt>
      <trkpt lat="49.32308" lon="0.98844">
        <ele>76</ele>
        <time>2019-06-10T18:14:56Z</time>
      </trkpt>
      <trkpt lat="49.32324" lon="0.98834">
        <ele>78</ele>
        <time>2019-06-10T18:15:00Z</time>
      </trkpt>
      <trkpt lat="49.32322" lon="0.98789">
        <ele>76</ele>
        <time>2019-06-10T18:15:07Z</time>
      </trkpt>
      <trkpt lat="49.32328" lon="0.98738">
        <ele>76</ele>
        <time>2019-06-10T18:15:15Z</time>
      </trkpt>
      <trkpt lat="49.32334" lon="0.98723">
        <ele>77</ele>
        <time>2019-06-10T18:15:18Z</time>
      </trkpt>
      <trkpt lat="49.3236" lon="0.98688">
        <ele>81</ele>
        <time>2019-06-10T18:15:26Z</time>
      </trkpt>
      <trkpt lat="49.32374" lon="0.98673">
        <ele>83</ele>
        <time>2019-06-10T18:15:30Z</time>
      </trkpt>
      <trkpt lat="49.32382" lon="0.98657">
        <ele>83</ele>
        <time>2019-06-10T18:15:33Z</time>
      </trkpt>
      <trkpt lat="49.32412" lon="0.98634">
        <ele>86</ele>
        <time>2019-06-10T18:15:41Z</time>
      </trkpt>
      <trkpt lat="49.32416" lon="0.98625">
        <ele>85</ele>
        <time>2019-06-10T18:15:42Z</time>
      </trkpt>
      <trkpt lat="49.32416" lon="0.98613">
        <ele>84</ele>
        <time>2019-06-10T18:15:44Z</time>
      </trkpt>
      <trkpt lat="49.32419" lon="0.98603">
        <ele>84</ele>
        <time>2019-06-10T18:15:46Z</time>
      </trkpt>
      <trkpt lat="49.32427" lon="0.98597">
        <ele>85</ele>
        <time>2019-06-10T18:15:48Z</time>
      </trkpt>
      <trkpt lat="49.32433" lon="0.98584">
        <ele>85</ele>
        <time>2019-06-10T18:15:50Z</time>
      </trkpt>
      <trkpt lat="49.32435" lon="0.9855">
        <ele>84</ele>
        <time>2019-06-10T18:15:56Z</time>
      </trkpt>
      <trkpt lat="49.32449" lon="0.98468">
        <ele>82</ele>
        <time>2019-06-10T18:16:08Z</time>
      </trkpt>
      <trkpt lat="49.32452" lon="0.98461">
        <ele>82</ele>
        <time>2019-06-10T18:16:10Z</time>
      </trkpt>
      <trkpt lat="49.32472" lon="0.9844">
        <ele>84</ele>
        <time>2019-06-10T18:16:15Z</time>
      </trkpt>
      <trkpt lat="49.32494" lon="0.98393">
        <ele>79</ele>
        <time>2019-06-10T18:16:24Z</time>
      </trkpt>
      <trkpt lat="49.32498" lon="0.98388">
        <ele>78</ele>
        <time>2019-06-10T18:16:25Z</time>
      </trkpt>
      <trkpt lat="49.3252" lon="0.98374">
        <ele>76</ele>
        <time>2019-06-10T18:16:31Z</time>
      </trkpt>
      <trkpt lat="49.3259" lon="0.98379">
        <ele>84</ele>
        <time>2019-06-10T18:16:47Z</time>
      </trkpt>
      <trkpt lat="49.32632" lon="0.98364">
        <ele>86</ele>
        <time>2019-06-10T18:16:57Z</time>
      </trkpt>
      <trkpt lat="49.3265" lon="0.98355">
        <ele>86</ele>
        <time>2019-06-10T18:17:02Z</time>
      </trkpt>
      <trkpt lat="49.32693" lon="0.98327">
        <ele>85</ele>
        <time>2019-06-10T18:17:13Z</time>
      </trkpt>
      <trkpt lat="49.32748" lon="0.98278">
        <ele>87</ele>
        <time>2019-06-10T18:17:28Z</time>
      </trkpt>
      <trkpt lat="49.32774" lon="0.98238">
        <ele>86</ele>
        <time>2019-06-10T18:17:36Z</time>
      </trkpt>
      <trkpt lat="49.32795" lon="0.98182">
        <ele>82</ele>
        <time>2019-06-10T18:17:46Z</time>
      </trkpt>
      <trkpt lat="49.32808" lon="0.98165">
        <ele>83</ele>
        <time>2019-06-10T18:17:50Z</time>
      </trkpt>
      <trkpt lat="49.32843" lon="0.98128">
        <ele>83</ele>
        <time>2019-06-10T18:18:00Z</time>
      </trkpt>
      <trkpt lat="49.32848" lon="0.98126">
        <ele>82</ele>
        <time>2019-06-10T18:18:01Z</time>
      </trkpt>
      <trkpt lat="49.32858" lon="0.98113">
        <ele>79</ele>
        <time>2019-06-10T18:18:04Z</time>
      </trkpt>
      <trkpt lat="49.32862" lon="0.98122">
        <ele>81</ele>
        <time>2019-06-10T18:18:06Z</time>
      </trkpt>
      <trkpt lat="49.32859" lon="0.98172">
        <ele>90</ele>
        <time>2019-06-10T18:18:14Z</time>
      </trkpt>
      <trkpt lat="49.32862" lon="0.98202">
        <ele>94</ele>
        <time>2019-06-10T18:18:18Z</time>
      </trkpt>
      <trkpt lat="49.32855" lon="0.98234">
        <ele>98</ele>
        <time>2019-06-10T18:18:23Z</time>
      </trkpt>
      <trkpt lat="49.32855" lon="0.98263">
        <ele>102</ele>
        <time>2019-06-10T18:18:28Z</time>
      </trkpt>
      <trkpt lat="49.32863" lon="0.98327">
        <ele>109</ele>
        <time>2019-06-10T18:18:38Z</time>
      </trkpt>
      <trkpt lat="49.32869" lon="0.98353">
        <ele>111</ele>
        <time>2019-06-10T18:18:42Z</time>
      </trkpt>
      <trkpt lat="49.32869" lon="0.98391">
        <ele>116</ele>
        <time>2019-06-10T18:18:48Z</time>
      </trkpt>
      <trkpt lat="49.32885" lon="0.98451">
        <ele>120</ele>
        <time>2019-06-10T18:18:57Z</time>
      </trkpt>
      <trkpt lat="49.3289" lon="0.98481">
        <ele>122</ele>
        <time>2019-06-10T18:19:02Z</time>
      </trkpt>
      <trkpt lat="49.32911" lon="0.98522">
        <ele>124</ele>
        <time>2019-06-10T18:19:10Z</time>
      </trkpt>
      <trkpt lat="49.32921" lon="0.98536">
        <ele>124</ele>
        <time>2019-06-10T18:19:13Z</time>
      </trkpt>
      <trkpt lat="49.32929" lon="0.98534">
        <ele>124</ele>
        <time>2019-06-10T18:19:15Z</time>
      </trkpt>
      <trkpt lat="49.32947" lon="0.98539">
        <ele>122</ele>
        <time>2019-06-10T18:19:19Z</time>
      </trkpt>
      <trkpt lat="49.32959" lon="0.98556">
        <ele>123</ele>
        <time>2019-06-10T18:19:23Z</time>
      </trkpt>
      <trkpt lat="49.32969" lon="0.98584">
        <ele>125</ele>
        <time>2019-06-10T18:19:28Z</time>
      </trkpt>
      <trkpt lat="49.32984" lon="0.98662">
        <ele>127</ele>
        <time>2019-06-10T18:19:40Z</time>
      </trkpt>
      <trkpt lat="49.33018" lon="0.9878">
        <ele>127</ele>
        <time>2019-06-10T18:20:00Z</time>
      </trkpt>
      <trkpt lat="49.33023" lon="0.98779">
        <ele>127</ele>
        <time>2019-06-10T18:20:01Z</time>
      </trkpt>
      <trkpt lat="49.33064" lon="0.98744">
        <ele>123</ele>
        <time>2019-06-10T18:20:12Z</time>
      </trkpt>
      <trkpt lat="49.33079" lon="0.98715">
        <ele>121</ele>
        <time>2019-06-10T18:20:18Z</time>
      </trkpt>
      <trkpt lat="49.33091" lon="0.98674">
        <ele>121</ele>
        <time>2019-06-10T18:20:25Z</time>
      </trkpt>
      <trkpt lat="49.33091" lon="0.9861">
        <ele>121</ele>
        <time>2019-06-10T18:20:34Z</time>
      </trkpt>
      <trkpt lat="49.331" lon="0.98529">
        <ele>122</ele>
        <time>2019-06-10T18:20:47Z</time>
      </trkpt>
      <trkpt lat="49.33108" lon="0.98481">
        <ele>122</ele>
        <time>2019-06-10T18:20:55Z</time>
      </trkpt>
      <trkpt lat="49.33108" lon="0.98456">
        <ele>122</ele>
        <time>2019-06-10T18:20:58Z</time>
      </trkpt>
      <trkpt lat="49.331" lon="0.98439">
        <ele>121</ele>
        <time>2019-06-10T18:21:02Z</time>
      </trkpt>
      <trkpt lat="49.33086" lon="0.98379">
        <ele>119</ele>
        <time>2019-06-10T18:21:11Z</time>
      </trkpt>
      <trkpt lat="49.33062" lon="0.98341">
        <ele>114</ele>
        <time>2019-06-10T18:21:19Z</time>
      </trkpt>
      <trkpt lat="49.33044" lon="0.98318">
        <ele>110</ele>
        <time>2019-06-10T18:21:25Z</time>
      </trkpt>
      <trkpt lat="49.33039" lon="0.98295">
        <ele>108</ele>
        <time>2019-06-10T18:21:28Z</time>
      </trkpt>
      <trkpt lat="49.33033" lon="0.98207">
        <ele>102</ele>
        <time>2019-06-10T18:21:42Z</time>
      </trkpt>
      <trkpt lat="49.33035" lon="0.98198">
        <ele>102</ele>
        <time>2019-06-10T18:21:43Z</time>
      </trkpt>
      <trkpt lat="49.33039" lon="0.98193">
        <ele>102</ele>
        <time>2019-06-10T18:21:45Z</time>
      </trkpt>
      <trkpt lat="49.33048" lon="0.98156">
        <ele>102</ele>
        <time>2019-06-10T18:21:51Z</time>
      </trkpt>
      <trkpt lat="49.33053" lon="0.98114">
        <ele>98</ele>
        <time>2019-06-10T18:21:57Z</time>
      </trkpt>
      <trkpt lat="49.33055" lon="0.98108">
        <ele>98</ele>
        <time>2019-06-10T18:21:58Z</time>
      </trkpt>
      <trkpt lat="49.33066" lon="0.98095">
        <ele>100</ele>
        <time>2019-06-10T18:22:01Z</time>
      </trkpt>
      <trkpt lat="49.33077" lon="0.9807">
        <ele>100</ele>
        <time>2019-06-10T18:22:06Z</time>
      </trkpt>
      <trkpt lat="49.33086" lon="0.98059">
        <ele>101</ele>
        <time>2019-06-10T18:22:09Z</time>
      </trkpt>
      <trkpt lat="49.33104" lon="0.98067">
        <ele>102</ele>
        <time>2019-06-10T18:22:13Z</time>
      </trkpt>
      <trkpt lat="49.33117" lon="0.98077">
        <ele>103</ele>
        <time>2019-06-10T18:22:16Z</time>
      </trkpt>
      <trkpt lat="49.3312" lon="0.98078">
        <ele>104</ele>
        <time>2019-06-10T18:22:17Z</time>
      </trkpt>
      <trkpt lat="49.33121" lon="0.98076">
        <ele>103</ele>
        <time>2019-06-10T18:22:17Z</time>
      </trkpt>
      <trkpt lat="49.33125" lon="0.9806">
        <ele>100</ele>
        <time>2019-06-10T18:22:20Z</time>
      </trkpt>
      <trkpt lat="49.33114" lon="0.97987">
        <ele>86</ele>
        <time>2019-06-10T18:22:31Z</time>
      </trkpt>
      <trkpt lat="49.33114" lon="0.97976">
        <ele>84</ele>
        <time>2019-06-10T18:22:33Z</time>
      </trkpt>
      <trkpt lat="49.33119" lon="0.97969">
        <ele>83</ele>
        <time>2019-06-10T18:22:35Z</time>
      </trkpt>
      <trkpt lat="49.33126" lon="0.97965">
        <ele>82</ele>
        <time>2019-06-10T18:22:36Z</time>
      </trkpt>
      <trkpt lat="49.33136" lon="0.97971">
        <ele>82</ele>
        <time>2019-06-10T18:22:39Z</time>
      </trkpt>
      <trkpt lat="49.33165" lon="0.98045">
        <ele>96</ele>
        <time>2019-06-10T18:22:52Z</time>
      </trkpt>
      <trkpt lat="49.33185" lon="0.98089">
        <ele>100</ele>
        <time>2019-06-10T18:23:00Z</time>
      </trkpt>
      <trkpt lat="49.33199" lon="0.98099">
        <ele>98</ele>
        <time>2019-06-10T18:23:04Z</time>
      </trkpt>
      <trkpt lat="49.33222" lon="0.98106">
        <ele>93</ele>
        <time>2019-06-10T18:23:09Z</time>
      </trkpt>
      <trkpt lat="49.33235" lon="0.98124">
        <ele>92</ele>
        <time>2019-06-10T18:23:13Z</time>
      </trkpt>
      <trkpt lat="49.33303" lon="0.98247">
        <ele>92</ele>
        <time>2019-06-10T18:23:38Z</time>
      </trkpt>
      <trkpt lat="49.33308" lon="0.9826">
        <ele>93</ele>
        <time>2019-06-10T18:23:40Z</time>
      </trkpt>
      <trkpt lat="49.33326" lon="0.98287">
        <ele>93</ele>
        <time>2019-06-10T18:23:46Z</time>
      </trkpt>
      <trkpt lat="49.33342" lon="0.98297">
        <ele>93</ele>
        <time>2019-06-10T18:23:50Z</time>
      </trkpt>
      <trkpt lat="49.33381" lon="0.9828">
        <ele>93</ele>
        <time>2019-06-10T18:24:00Z</time>
      </trkpt>
      <trkpt lat="49.33392" lon="0.98279">
        <ele>93</ele>
        <time>2019-06-10T18:24:02Z</time>
      </trkpt>
      <trkpt lat="49.33401" lon="0.98281">
        <ele>94</ele>
        <time>2019-06-10T18:24:04Z</time>
      </trkpt>
      <trkpt lat="49.33442" lon="0.98299">
        <ele>98</ele>
        <time>2019-06-10T18:24:14Z</time>
      </trkpt>
      <trkpt lat="49.33473" lon="0.98308">
        <ele>102</ele>
        <time>2019-06-10T18:24:22Z</time>
      </trkpt>
      <trkpt lat="49.33512" lon="0.98331">
        <ele>105</ele>
        <time>2019-06-10T18:24:31Z</time>
      </trkpt>
      <trkpt lat="49.33527" lon="0.98335">
        <ele>107</ele>
        <time>2019-06-10T18:24:35Z</time>
      </trkpt>
      <trkpt lat="49.33538" lon="0.98344">
        <ele>109</ele>
        <time>2019-06-10T18:24:38Z</time>
      </trkpt>
      <trkpt lat="49.33551" lon="0.9836">
        <ele>111</ele>
        <time>2019-06-10T18:24:42Z</time>
      </trkpt>
      <trkpt lat="49.3357" lon="0.98375">
        <ele>114</ele>
        <time>2019-06-10T18:24:47Z</time>
      </trkpt>
      <trkpt lat="49.33579" lon="0.98379">
        <ele>115</ele>
        <time>2019-06-10T18:24:49Z</time>
      </trkpt>
      <trkpt lat="49.33587" lon="0.98379">
        <ele>115</ele>
        <time>2019-06-10T18:24:51Z</time>
      </trkpt>
      <trkpt lat="49.33599" lon="0.98364">
        <ele>117</ele>
        <time>2019-06-10T18:24:54Z</time>
      </trkpt>
      <trkpt lat="49.33594" lon="0.98342">
        <ele>117</ele>
        <time>2019-06-10T18:24:58Z</time>
      </trkpt>
      <trkpt lat="49.33599" lon="0.98315">
        <ele>118</ele>
        <time>2019-06-10T18:25:02Z</time>
      </trkpt>
      <trkpt lat="49.33597" lon="0.98302">
        <ele>119</ele>
        <time>2019-06-10T18:25:04Z</time>
      </trkpt>
      <trkpt lat="49.3359" lon="0.9828">
        <ele>119</ele>
        <time>2019-06-10T18:25:08Z</time>
      </trkpt>
      <trkpt lat="49.33575" lon="0.9826">
        <ele>118</ele>
        <time>2019-06-10T18:25:13Z</time>
      </trkpt>
      <trkpt lat="49.33541" lon="0.98225">
        <ele>115</ele>
        <time>2019-06-10T18:25:22Z</time>
      </trkpt>
      <trkpt lat="49.3353" lon="0.982">
        <ele>115</ele>
        <time>2019-06-10T18:25:27Z</time>
      </trkpt>
      <trkpt lat="49.3353" lon="0.98169">
        <ele>117</ele>
        <time>2019-06-10T18:25:32Z</time>
      </trkpt>
      <trkpt lat="49.33525" lon="0.98128">
        <ele>117</ele>
        <time>2019-06-10T18:25:38Z</time>
      </trkpt>
      <trkpt lat="49.33524" lon="0.9809">
        <ele>117</ele>
        <time>2019-06-10T18:25:44Z</time>
      </trkpt>
      <trkpt lat="49.33528" lon="0.98087">
        <ele>117</ele>
        <time>2019-06-10T18:25:45Z</time>
      </trkpt>
      <trkpt lat="49.33543" lon="0.98088">
        <ele>119</ele>
        <time>2019-06-10T18:25:48Z</time>
      </trkpt>
      <trkpt lat="49.33555" lon="0.98094">
        <ele>121</ele>
        <time>2019-06-10T18:25:51Z</time>
      </trkpt>
      <trkpt lat="49.33566" lon="0.98108">
        <ele>122</ele>
        <time>2019-06-10T18:25:55Z</time>
      </trkpt>
      <trkpt lat="49.33584" lon="0.98139">
        <ele>124</ele>
        <time>2019-06-10T18:26:01Z</time>
      </trkpt>
      <trkpt lat="49.33596" lon="0.98168">
        <ele>125</ele>
        <time>2019-06-10T18:26:06Z</time>
      </trkpt>
      <trkpt lat="49.33619" lon="0.98159">
        <ele>128</ele>
        <time>2019-06-10T18:26:12Z</time>
      </trkpt>
      <trkpt lat="49.33632" lon="0.98159">
        <ele>129</ele>
        <time>2019-06-10T18:26:15Z</time>
      </trkpt>
      <trkpt lat="49.33646" lon="0.98149">
        <ele>131</ele>
        <time>2019-06-10T18:26:18Z</time>
      </trkpt>
      <trkpt lat="49.33654" lon="0.9813">
        <ele>132</ele>
        <time>2019-06-10T18:26:22Z</time>
      </trkpt>
      <trkpt lat="49.33666" lon="0.98115">
        <ele>134</ele>
        <time>2019-06-10T18:26:25Z</time>
      </trkpt>
      <trkpt lat="49.33597" lon="0.97894">
        <ele>121</ele>
        <time>2019-06-10T18:27:03Z</time>
      </trkpt>
      <trkpt lat="49.33597" lon="0.97846">
        <ele>116</ele>
        <time>2019-06-10T18:27:10Z</time>
      </trkpt>
      <trkpt lat="49.33608" lon="0.97824">
        <ele>115</ele>
        <time>2019-06-10T18:27:14Z</time>
      </trkpt>
      <trkpt lat="49.3362" lon="0.97813">
        <ele>115</ele>
        <time>2019-06-10T18:27:17Z</time>
      </trkpt>
      <trkpt lat="49.33656" lon="0.97814">
        <ele>117</ele>
        <time>2019-06-10T18:27:26Z</time>
      </trkpt>
      <trkpt lat="49.33722" lon="0.97827">
        <ele>116</ele>
        <time>2019-06-10T18:27:41Z</time>
      </trkpt>
      <trkpt lat="49.33742" lon="0.97826">
        <ele>115</ele>
        <time>2019-06-10T18:27:46Z</time>
      </trkpt>
      <trkpt lat="49.33755" lon="0.97811">
        <ele>114</ele>
        <time>2019-06-10T18:27:50Z</time>
      </trkpt>
      <trkpt lat="49.3377" lon="0.97759">
        <ele>113</ele>
        <time>2019-06-10T18:27:58Z</time>
      </trkpt>
      <trkpt lat="49.33768" lon="0.97725">
        <ele>114</ele>
        <time>2019-06-10T18:28:04Z</time>
      </trkpt>
      <trkpt lat="49.33763" lon="0.97711">
        <ele>114</ele>
        <time>2019-06-10T18:28:06Z</time>
      </trkpt>
      <trkpt lat="49.33751" lon="0.97691">
        <ele>113</ele>
        <time>2019-06-10T18:28:10Z</time>
      </trkpt>
      <trkpt lat="49.33724" lon="0.97664">
        <ele>111</ele>
        <time>2019-06-10T18:28:18Z</time>
      </trkpt>
      <trkpt lat="49.33717" lon="0.97649">
        <ele>110</ele>
        <time>2019-06-10T18:28:21Z</time>
      </trkpt>
      <trkpt lat="49.33713" lon="0.97616">
        <ele>109</ele>
        <time>2019-06-10T18:28:26Z</time>
      </trkpt>
      <trkpt lat="49.33715" lon="0.97599">
        <ele>109</ele>
        <time>2019-06-10T18:28:28Z</time>
      </trkpt>
      <trkpt lat="49.33716" lon="0.97596">
        <ele>108.7</ele>
      </trkpt>
      <trkpt lat="49.33653" lon="0.97279">
        <ele>103.3</ele>
      </trkpt>
      <trkpt lat="49.33673" lon="0.97137">
        <ele>106.7</ele>
      </trkpt>
      <trkpt lat="49.33712" lon="0.96989">
        <ele>102.4</ele>
      </trkpt>
      <trkpt lat="49.33719" lon="0.96897">
        <ele>100.7</ele>
      </trkpt>
      <trkpt lat="49.33722" lon="0.96781">
        <ele>100.3</ele>
      </trkpt>
      <trkpt lat="49.33719" lon="0.96592">
        <ele>99</ele>
      </trkpt>
      <trkpt lat="49.3373" lon="0.96474">
        <ele>97.8</ele>
      </trkpt>
      <trkpt lat="49.33759" lon="0.96443">
        <ele>104.8</ele>
      </trkpt>
      <trkpt lat="49.33786" lon="0.96387">
        <ele>103.4</ele>
      </trkpt>
      <trkpt lat="49.33826" lon="0.96345">
        <ele>102.1</ele>
      </trkpt>
      <trkpt lat="49.33826" lon="0.96289">
        <ele>95.3</ele>
      </trkpt>
      <trkpt lat="49.33825" lon="0.96287">
        <ele>95</ele>
      </trkpt>
    </trkseg>
  </trk>
</gpx>